sensor_id;sensor_type;location;lat;lon;timestamp;pressure;altitude;pressure_sealevel;temperature;humidity
84380;BME280;74571;52.514;13.468;2024-03-08T00:02:05;101918.66;;;1.73;70.74
84380;BME280;74571;52.514;13.468;2024-03-08T00:04:30;101915.75;;;1.76;70.66
84380;BME280;74571;52.514;13.468;2024-03-08T00:06:56;101914.81;;;1.77;70.48
84380;BME280;74571;52.514;13.468;2024-03-08T00:09:21;101919.59;;;1.72;71.12
84380;BME280;74571;52.514;13.468;2024-03-08T00:11:46;101918.94;;;1.68;70.77
84380;BME280;74571;52.514;13.468;2024-03-08T00:14:12;101923.06;;;1.72;71.16
84380;BME280;74571;52.514;13.468;2024-03-08T00:16:37;101915.16;;;1.72;71.15
84380;BME280;74571;52.514;13.468;2024-03-08T00:19:02;101910.50;;;1.63;71.02
84380;BME280;74571;52.514;13.468;2024-03-08T00:21:27;101911.88;;;1.69;70.62
84380;BME280;74571;52.514;13.468;2024-03-08T00:23:53;101905.13;;;1.65;70.93
84380;BME280;74571;52.514;13.468;2024-03-08T00:26:20;101914.09;;;1.62;71.11
84380;BME280;74571;52.514;13.468;2024-03-08T00:28:46;101914.63;;;1.67;71.33
84380;BME280;74571;52.514;13.468;2024-03-08T00:31:11;101908.72;;;1.64;70.87
84380;BME280;74571;52.514;13.468;2024-03-08T00:33:37;101910.81;;;1.59;71.53
84380;BME280;74571;52.514;13.468;2024-03-08T00:36:02;101913.59;;;1.57;71.66
84380;BME280;74571;52.514;13.468;2024-03-08T00:38:27;101913.88;;;1.53;71.80
84380;BME280;74571;52.514;13.468;2024-03-08T00:40:53;101913.25;;;1.49;71.34
84380;BME280;74571;52.514;13.468;2024-03-08T00:43:18;101915.34;;;1.44;71.75
84380;BME280;74571;52.514;13.468;2024-03-08T00:45:43;101910.91;;;1.45;71.93
84380;BME280;74571;52.514;13.468;2024-03-08T00:48:09;101903.00;;;1.45;71.34
84380;BME280;74571;52.514;13.468;2024-03-08T00:50:35;101907.13;;;1.49;71.81
84380;BME280;74571;52.514;13.468;2024-03-08T00:53:00;101908.91;;;1.48;71.92
84380;BME280;74571;52.514;13.468;2024-03-08T00:55:26;101898.78;;;1.42;72.18
84380;BME280;74571;52.514;13.468;2024-03-08T00:57:51;101897.97;;;1.42;71.91
84380;BME280;74571;52.514;13.468;2024-03-08T01:00:19;101903.34;;;1.40;72.67
84380;BME280;74571;52.514;13.468;2024-03-08T01:02:46;101898.38;;;1.35;72.03
84380;BME280;74571;52.514;13.468;2024-03-08T01:05:12;101885.50;;;1.31;72.65
84380;BME280;74571;52.514;13.468;2024-03-08T01:07:37;101888.88;;;1.33;72.43
84380;BME280;74571;52.514;13.468;2024-03-08T01:10:03;101893.31;;;1.32;72.28
84380;BME280;74571;52.514;13.468;2024-03-08T01:12:29;101885.09;;;1.24;72.66
84380;BME280;74571;52.514;13.468;2024-03-08T01:14:55;101876.22;;;1.25;73.34
84380;BME280;74571;52.514;13.468;2024-03-08T01:17:20;101881.91;;;1.19;73.06
84380;BME280;74571;52.514;13.468;2024-03-08T01:19:45;101876.63;;;1.19;72.98
84380;BME280;74571;52.514;13.468;2024-03-08T01:22:11;101874.94;;;1.18;73.03
84380;BME280;74571;52.514;13.468;2024-03-08T01:24:36;101870.72;;;1.16;73.38
84380;BME280;74571;52.514;13.468;2024-03-08T01:27:02;101864.81;;;1.12;73.49
84380;BME280;74571;52.514;13.468;2024-03-08T01:29:27;101857.53;;;1.16;73.29
84380;BME280;74571;52.514;13.468;2024-03-08T01:31:54;101858.59;;;1.13;73.56
84380;BME280;74571;52.514;13.468;2024-03-08T01:34:20;101852.56;;;1.11;73.83
84380;BME280;74571;52.514;13.468;2024-03-08T01:36:46;101860.63;;;1.10;73.25
84380;BME280;74571;52.514;13.468;2024-03-08T01:39:11;101855.63;;;1.05;73.66
84380;BME280;74571;52.514;13.468;2024-03-08T01:41:36;101857.84;;;1.11;73.19
84380;BME280;74571;52.514;13.468;2024-03-08T01:44:02;101846.69;;;1.08;73.39
84380;BME280;74571;52.514;13.468;2024-03-08T01:46:30;101851.22;;;1.05;73.51
84380;BME280;74571;52.514;13.468;2024-03-08T01:48:56;101843.41;;;1.04;73.91
84380;BME280;74571;52.514;13.468;2024-03-08T01:51:22;101848.38;;;1.09;73.52
84380;BME280;74571;52.514;13.468;2024-03-08T01:53:48;101851.41;;;1.02;74.10
84380;BME280;74571;52.514;13.468;2024-03-08T01:56:13;101848.88;;;1.01;73.81
84380;BME280;74571;52.514;13.468;2024-03-08T01:58:41;101840.13;;;1.00;74.36
84380;BME280;74571;52.514;13.468;2024-03-08T02:01:07;101835.06;;;0.97;73.89
84380;BME280;74571;52.514;13.468;2024-03-08T02:03:32;101840.34;;;0.97;73.67
84380;BME280;74571;52.514;13.468;2024-03-08T02:05:58;101824.75;;;0.94;74.06
84380;BME280;74571;52.514;13.468;2024-03-08T02:08:24;101832.53;;;0.96;73.90
84380;BME280;74571;52.514;13.468;2024-03-08T02:10:49;101828.34;;;0.93;74.18
84380;BME280;74571;52.514;13.468;2024-03-08T02:13:15;101819.69;;;0.91;74.23
84380;BME280;74571;52.514;13.468;2024-03-08T02:15:53;101816.41;;;0.88;74.57
84380;BME280;74571;52.514;13.468;2024-03-08T02:18:19;101824.31;;;0.88;74.57
84380;BME280;74571;52.514;13.468;2024-03-08T02:21:00;101815.03;;;0.82;74.58
84380;BME280;74571;52.514;13.468;2024-03-08T02:23:26;101815.97;;;0.81;75.28
84380;BME280;74571;52.514;13.468;2024-03-08T02:25:52;101821.13;;;0.83;75.13
84380;BME280;74571;52.514;13.468;2024-03-08T02:28:18;101810.38;;;0.73;75.07
84380;BME280;74571;52.514;13.468;2024-03-08T02:30:47;101806.81;;;0.74;75.13
84380;BME280;74571;52.514;13.468;2024-03-08T02:33:17;101809.63;;;0.71;75.72
84380;BME280;74571;52.514;13.468;2024-03-08T02:35:43;101813.97;;;0.72;75.58
84380;BME280;74571;52.514;13.468;2024-03-08T02:38:17;101824.03;;;0.65;75.59
84380;BME280;74571;52.514;13.468;2024-03-08T02:40:44;101814.88;;;0.58;76.41
84380;BME280;74571;52.514;13.468;2024-03-08T02:43:10;101808.69;;;0.59;76.62
84380;BME280;74571;52.514;13.468;2024-03-08T02:45:36;101808.06;;;0.68;75.65
84380;BME280;74571;52.514;13.468;2024-03-08T02:48:01;101807.22;;;0.68;76.25
84380;BME280;74571;52.514;13.468;2024-03-08T02:50:27;101802.13;;;0.65;76.36
84380;BME280;74571;52.514;13.468;2024-03-08T02:52:52;101797.63;;;0.67;75.75
84380;BME280;74571;52.514;13.468;2024-03-08T02:55:18;101797.63;;;0.67;76.40
84380;BME280;74571;52.514;13.468;2024-03-08T02:57:43;101790.03;;;0.62;76.06
84380;BME280;74571;52.514;13.468;2024-03-08T03:00:09;101800.34;;;0.65;76.15
84380;BME280;74571;52.514;13.468;2024-03-08T03:02:35;101803.63;;;0.69;76.27
84380;BME280;74571;52.514;13.468;2024-03-08T03:05:01;101800.25;;;0.67;75.85
84380;BME280;74571;52.514;13.468;2024-03-08T03:07:30;101796.88;;;0.65;76.08
84380;BME280;74571;52.514;13.468;2024-03-08T03:09:56;101795.19;;;0.64;75.93
84380;BME280;74571;52.514;13.468;2024-03-08T03:12:21;101797.94;;;0.62;76.33
84380;BME280;74571;52.514;13.468;2024-03-08T03:14:46;101793.72;;;0.60;76.77
84380;BME280;74571;52.514;13.468;2024-03-08T03:17:12;101797.28;;;0.59;76.62
84380;BME280;74571;52.514;13.468;2024-03-08T03:19:40;101793.91;;;0.57;76.55
84380;BME280;74571;52.514;13.468;2024-03-08T03:22:05;101803.50;;;0.58;76.81
84380;BME280;74571;52.514;13.468;2024-03-08T03:24:32;101800.97;;;0.56;76.55
84380;BME280;74571;52.514;13.468;2024-03-08T03:26:58;101794.47;;;0.62;76.69
84380;BME280;74571;52.514;13.468;2024-03-08T03:29:24;101791.94;;;0.60;76.02
84380;BME280;74571;52.514;13.468;2024-03-08T03:31:50;101795.81;;;0.55;76.43
84380;BME280;74571;52.514;13.468;2024-03-08T03:34:16;101781.16;;;0.51;76.72
84380;BME280;74571;52.514;13.468;2024-03-08T03:36:41;101788.09;;;0.52;77.14
84380;BME280;74571;52.514;13.468;2024-03-08T03:39:11;101784.53;;;0.53;76.87
84380;BME280;74571;52.514;13.468;2024-03-08T03:41:38;101774.94;;;0.52;77.06
84380;BME280;74571;52.514;13.468;2024-03-08T03:44:04;101784.72;;;0.50;77.21
84380;BME280;74571;52.514;13.468;2024-03-08T03:46:30;101777.69;;;0.50;76.76
84380;BME280;74571;52.514;13.468;2024-03-08T03:48:55;101786.50;;;0.49;77.00
84380;BME280;74571;52.514;13.468;2024-03-08T03:51:21;101782.31;;;0.47;77.28
84380;BME280;74571;52.514;13.468;2024-03-08T03:53:46;101783.38;;;0.44;77.37
84380;BME280;74571;52.514;13.468;2024-03-08T03:56:12;101787.47;;;0.48;77.26
84380;BME280;74571;52.514;13.468;2024-03-08T03:58:37;101783.56;;;0.41;77.22
84380;BME280;74571;52.514;13.468;2024-03-08T04:01:04;101787.78;;;0.44;77.79
84380;BME280;74571;52.514;13.468;2024-03-08T04:03:29;101787.78;;;0.44;77.16
84380;BME280;74571;52.514;13.468;2024-03-08T04:05:55;101785.06;;;0.45;77.36
84380;BME280;74571;52.514;13.468;2024-03-08T04:08:20;101788.72;;;0.43;77.67
84380;BME280;74571;52.514;13.468;2024-03-08T04:10:45;101782.63;;;0.42;77.74
84380;BME280;74571;52.514;13.468;2024-03-08T04:13:11;101784.31;;;0.43;78.03
84380;BME280;74571;52.514;13.468;2024-03-08T04:15:36;101776.50;;;0.42;77.68
84380;BME280;74571;52.514;13.468;2024-03-08T04:18:03;101775.75;;;0.40;77.28
84380;BME280;74571;52.514;13.468;2024-03-08T04:20:28;101781.97;;;0.39;77.64
84380;BME280;74571;52.514;13.468;2024-03-08T04:22:53;101780.47;;;0.34;78.02
84380;BME280;74571;52.514;13.468;2024-03-08T04:25:19;101778.38;;;0.27;78.09
84380;BME280;74571;52.514;13.468;2024-03-08T04:27:45;101778.56;;;0.24;78.29
84380;BME280;74571;52.514;13.468;2024-03-08T04:30:12;101779.69;;;0.20;78.63
84380;BME280;74571;52.514;13.468;2024-03-08T04:32:37;101778.00;;;0.19;78.85
84380;BME280;74571;52.514;13.468;2024-03-08T04:35:03;101782.88;;;0.25;78.64
84380;BME280;74571;52.514;13.468;2024-03-08T04:37:28;101778.06;;;0.31;78.18
84380;BME280;74571;52.514;13.468;2024-03-08T04:39:57;101781.00;;;0.27;77.84
84380;BME280;74571;52.514;13.468;2024-03-08T04:42:23;101788.69;;;0.30;78.69
84380;BME280;74571;52.514;13.468;2024-03-08T04:44:48;101774.25;;;0.23;79.09
84380;BME280;74571;52.514;13.468;2024-03-08T04:47:13;101767.47;;;0.19;79.06
84380;BME280;74571;52.514;13.468;2024-03-08T04:49:39;101771.91;;;0.18;78.74
84380;BME280;74571;52.514;13.468;2024-03-08T04:52:04;101782.84;;;0.12;79.27
84380;BME280;74571;52.514;13.468;2024-03-08T04:54:30;101772.50;;;0.09;79.58
84380;BME280;74571;52.514;13.468;2024-03-08T04:56:56;101772.03;;;0.03;79.77
84380;BME280;74571;52.514;13.468;2024-03-08T04:59:21;101774.06;;;-0.01;79.74
84380;BME280;74571;52.514;13.468;2024-03-08T05:01:46;101771.19;;;0.02;79.35
84380;BME280;74571;52.514;13.468;2024-03-08T05:04:12;101772.13;;;0.01;79.50
84380;BME280;74571;52.514;13.468;2024-03-08T05:06:41;101773.41;;;-0.05;79.97
84380;BME280;74571;52.514;13.468;2024-03-08T05:09:06;101771.06;;;-0.09;80.06
84380;BME280;74571;52.514;13.468;2024-03-08T05:11:39;101768.44;;;-0.09;80.44
84380;BME280;74571;52.514;13.468;2024-03-08T05:14:05;101775.28;;;-0.07;80.30
84380;BME280;74571;52.514;13.468;2024-03-08T05:16:30;101764.94;;;-0.10;80.89
84380;BME280;74571;52.514;13.468;2024-03-08T05:18:55;101766.53;;;-0.07;79.92
84380;BME280;74571;52.514;13.468;2024-03-08T05:21:22;101769.38;;;-0.10;80.49
84380;BME280;74571;52.514;13.468;2024-03-08T05:23:47;101772.19;;;-0.13;80.87
84380;BME280;74571;52.514;13.468;2024-03-08T05:26:12;101765.47;;;-0.17;80.83
84380;BME280;74571;52.514;13.468;2024-03-08T05:28:39;101758.59;;;-0.20;80.86
84380;BME280;74571;52.514;13.468;2024-03-08T05:31:04;101762.06;;;-0.19;81.06
84380;BME280;74571;52.514;13.468;2024-03-08T05:33:29;101758.88;;;-0.24;81.29
84380;BME280;74571;52.514;13.468;2024-03-08T05:35:54;101758.13;;;-0.26;81.25
84380;BME280;74571;52.514;13.468;2024-03-08T05:38:20;101760.66;;;-0.25;81.70
84380;BME280;74571;52.514;13.468;2024-03-08T05:40:46;101756.06;;;-0.21;81.26
84380;BME280;74571;52.514;13.468;2024-03-08T05:43:11;101751.56;;;-0.19;81.51
84380;BME280;74571;52.514;13.468;2024-03-08T05:45:37;101749.78;;;-0.19;81.37
84380;BME280;74571;52.514;13.468;2024-03-08T05:48:02;101750.06;;;-0.23;81.39
84380;BME280;74571;52.514;13.468;2024-03-08T05:50:27;101763.97;;;-0.21;81.29
84380;BME280;74571;52.514;13.468;2024-03-08T05:52:53;101759.63;;;-0.22;81.54
84380;BME280;74571;52.514;13.468;2024-03-08T05:55:18;101753.44;;;-0.21;81.37
84380;BME280;74571;52.514;13.468;2024-03-08T05:57:43;101756.91;;;-0.21;81.50
84380;BME280;74571;52.514;13.468;2024-03-08T06:00:09;101762.69;;;-0.16;81.67
84380;BME280;74571;52.514;13.468;2024-03-08T06:02:40;101761.88;;;-0.16;81.82
84380;BME280;74571;52.514;13.468;2024-03-08T06:05:08;101765.97;;;-0.12;81.74
84380;BME280;74571;52.514;13.468;2024-03-08T06:07:34;101770.41;;;-0.13;81.46
84380;BME280;74571;52.514;13.468;2024-03-08T06:09:59;101772.75;;;-0.08;81.21
84380;BME280;74571;52.514;13.468;2024-03-08T06:12:25;101778.75;;;-0.06;81.22
84380;BME280;74571;52.514;13.468;2024-03-08T06:14:54;101770.47;;;0.00;81.27
84380;BME280;74571;52.514;13.468;2024-03-08T06:17:19;101774.91;;;-0.01;80.77
84380;BME280;74571;52.514;13.468;2024-03-08T06:19:44;101771.00;;;0.05;80.40
84380;BME280;74571;52.514;13.468;2024-03-08T06:22:09;101777.97;;;0.06;80.56
84380;BME280;74571;52.514;13.468;2024-03-08T06:24:35;101777.97;;;0.06;80.53
84380;BME280;74571;52.514;13.468;2024-03-08T06:27:02;101770.06;;;0.06;80.51
84380;BME280;74571;52.514;13.468;2024-03-08T06:29:27;101769.03;;;0.09;80.43
84380;BME280;74571;52.514;13.468;2024-03-08T06:31:52;101767.06;;;0.12;80.54
84380;BME280;74571;52.514;13.468;2024-03-08T06:34:18;101763.47;;;0.13;80.67
84380;BME280;74571;52.514;13.468;2024-03-08T06:36:43;101773.59;;;0.19;80.29
84380;BME280;74571;52.514;13.468;2024-03-08T06:39:09;101769.63;;;0.26;80.11
84380;BME280;74571;52.514;13.468;2024-03-08T06:41:37;101769.34;;;0.31;79.85
84380;BME280;74571;52.514;13.468;2024-03-08T06:44:08;101769.19;;;0.32;79.89
84380;BME280;74571;52.514;13.468;2024-03-08T06:46:34;101768.41;;;0.45;79.34
84380;BME280;74571;52.514;13.468;2024-03-08T06:48:59;101768.31;;;0.46;79.15
84380;BME280;74571;52.514;13.468;2024-03-08T06:51:24;101763.38;;;0.54;78.28
84380;BME280;74571;52.514;13.468;2024-03-08T06:53:55;101764.97;;;0.57;78.01
84380;BME280;74571;52.514;13.468;2024-03-08T06:56:21;101759.16;;;0.64;78.23
84380;BME280;74571;52.514;13.468;2024-03-08T06:58:47;101754.53;;;0.68;77.78
84380;BME280;74571;52.514;13.468;2024-03-08T07:01:13;101762.78;;;0.76;76.87
84380;BME280;74571;52.514;13.468;2024-03-08T07:03:41;101771.09;;;0.83;77.49
84380;BME280;74571;52.514;13.468;2024-03-08T07:06:10;101766.91;;;0.93;76.74
84380;BME280;74571;52.514;13.468;2024-03-08T07:08:35;101769.31;;;0.96;75.42
84380;BME280;74571;52.514;13.468;2024-03-08T07:11:00;101754.78;;;1.03;76.15
84380;BME280;74571;52.514;13.468;2024-03-08T07:13:26;101756.06;;;1.10;75.58
84380;BME280;74571;52.514;13.468;2024-03-08T07:15:53;101767.63;;;1.20;75.26
84380;BME280;74571;52.514;13.468;2024-03-08T07:18:18;101765.75;;;1.22;74.60
84380;BME280;74571;52.514;13.468;2024-03-08T07:20:44;101758.47;;;1.26;75.16
84380;BME280;74571;52.514;13.468;2024-03-08T07:23:09;101763.28;;;1.32;75.42
84380;BME280;74571;52.514;13.468;2024-03-08T07:25:38;101764.56;;;1.39;74.44
84380;BME280;74571;52.514;13.468;2024-03-08T07:28:04;101762.00;;;1.50;74.15
84380;BME280;74571;52.514;13.468;2024-03-08T07:30:31;101751.34;;;1.52;74.47
84380;BME280;74571;52.514;13.468;2024-03-08T07:33:11;101759.88;;;1.55;73.89
84380;BME280;74571;52.514;13.468;2024-03-08T07:35:37;101747.72;;;1.65;72.90
84380;BME280;74571;52.514;13.468;2024-03-08T07:38:04;101750.63;;;1.73;72.94
84380;BME280;74571;52.514;13.468;2024-03-08T07:40:31;101751.06;;;1.80;73.23
84380;BME280;74571;52.514;13.468;2024-03-08T07:42:56;101748.81;;;1.87;72.44
84380;BME280;74571;52.514;13.468;2024-03-08T07:45:21;101742.13;;;1.94;72.89
84380;BME280;74571;52.514;13.468;2024-03-08T07:47:47;101745.06;;;2.02;71.65
84380;BME280;74571;52.514;13.468;2024-03-08T07:50:12;101733.50;;;2.16;71.36
84380;BME280;74571;52.514;13.468;2024-03-08T07:52:41;101732.44;;;2.18;70.66
84380;BME280;74571;52.514;13.468;2024-03-08T07:55:07;101738.38;;;2.33;70.72
84380;BME280;74571;52.514;13.468;2024-03-08T07:57:32;101731.88;;;2.37;70.25
84380;BME280;74571;52.514;13.468;2024-03-08T07:59:58;101730.34;;;2.45;70.20
84380;BME280;74571;52.514;13.468;2024-03-08T08:02:23;101725.09;;;2.57;69.27
84380;BME280;74571;52.514;13.468;2024-03-08T08:04:49;101722.72;;;2.65;69.71
84380;BME280;74571;52.514;13.468;2024-03-08T08:10:06;101710.38;;;2.76;68.99
84380;BME280;74571;52.514;13.468;2024-03-08T08:12:31;101720.00;;;2.89;68.60
84380;BME280;74571;52.514;13.468;2024-03-08T08:14:59;101713.53;;;2.93;67.44
84380;BME280;74571;52.514;13.468;2024-03-08T08:17:24;101719.66;;;3.04;67.46
84380;BME280;74571;52.514;13.468;2024-03-08T08:19:50;101716.41;;;3.12;67.21
84380;BME280;74571;52.514;13.468;2024-03-08T08:22:15;101713.41;;;3.16;66.13
84380;BME280;74571;52.514;13.468;2024-03-08T08:24:40;101708.72;;;3.20;65.65
84380;BME280;74571;52.514;13.468;2024-03-08T08:27:06;101723.50;;;3.34;66.04
84380;BME280;74571;52.514;13.468;2024-03-08T08:29:31;101717.25;;;3.35;65.07
84380;BME280;74571;52.514;13.468;2024-03-08T08:31:58;101712.53;;;3.49;64.75
84380;BME280;74571;52.514;13.468;2024-03-08T08:34:24;101709.31;;;3.46;64.46
84380;BME280;74571;52.514;13.468;2024-03-08T08:36:51;101709.03;;;3.49;64.79
84380;BME280;74571;52.514;13.468;2024-03-08T08:39:16;101712.78;;;3.58;64.91
84380;BME280;74571;52.514;13.468;2024-03-08T08:41:42;101707.44;;;3.69;64.07
84380;BME280;74571;52.514;13.468;2024-03-08T08:44:07;101702.13;;;3.80;63.56
84380;BME280;74571;52.514;13.468;2024-03-08T08:46:37;101697.91;;;3.88;62.93
84380;BME280;74571;52.514;13.468;2024-03-08T08:49:03;101699.19;;;3.94;62.44
84380;BME280;74571;52.514;13.468;2024-03-08T08:51:28;101693.03;;;4.05;62.27
84380;BME280;74571;52.514;13.468;2024-03-08T08:53:54;101691.09;;;4.07;62.48
84380;BME280;74571;52.514;13.468;2024-03-08T08:56:21;101689.81;;;4.22;62.58
84380;BME280;74571;52.514;13.468;2024-03-08T08:58:47;101683.56;;;4.23;62.39
84380;BME280;74571;52.514;13.468;2024-03-08T09:01:13;101685.94;;;4.26;62.26
84380;BME280;74571;52.514;13.468;2024-03-08T09:03:38;101686.16;;;4.34;62.00
84380;BME280;74571;52.514;13.468;2024-03-08T09:06:06;101682.47;;;4.46;61.33
84380;BME280;74571;52.514;13.468;2024-03-08T09:08:35;101677.88;;;4.48;61.68
84380;BME280;74571;52.514;13.468;2024-03-08T09:11:01;101675.59;;;4.65;60.51
84380;BME280;74571;52.514;13.468;2024-03-08T09:13:27;101678.28;;;4.74;60.35
84380;BME280;74571;52.514;13.468;2024-03-08T09:15:52;101677.47;;;4.74;59.62
84380;BME280;74571;52.514;13.468;2024-03-08T09:18:17;101671.59;;;4.70;60.11
84380;BME280;74571;52.514;13.468;2024-03-08T09:20:44;101668.81;;;4.72;60.18
84380;BME280;74571;52.514;13.468;2024-03-08T09:23:09;101667.56;;;4.76;59.83
84380;BME280;74571;52.514;13.468;2024-03-08T09:25:35;101669.97;;;4.79;59.74
84380;BME280;74571;52.514;13.468;2024-03-08T09:28:00;101668.03;;;4.81;58.87
84380;BME280;74571;52.514;13.468;2024-03-08T09:30:25;101672.34;;;4.82;58.92
84380;BME280;74571;52.514;13.468;2024-03-08T09:32:50;101653.97;;;4.90;59.21
84380;BME280;74571;52.514;13.468;2024-03-08T09:35:16;101656.91;;;4.87;59.70
84380;BME280;74571;52.514;13.468;2024-03-08T09:37:41;101653.03;;;5.01;58.97
84380;BME280;74571;52.514;13.468;2024-03-08T09:40:07;101645.97;;;5.20;58.36
84380;BME280;74571;52.514;13.468;2024-03-08T09:42:37;101647.25;;;5.26;58.44
84380;BME280;74571;52.514;13.468;2024-03-08T09:45:08;101646.13;;;5.19;57.93
84380;BME280;74571;52.514;13.468;2024-03-08T09:47:36;101634.69;;;5.18;57.58
84380;BME280;74571;52.514;13.468;2024-03-08T09:50:07;101637.22;;;5.29;57.29
84380;BME280;74571;52.514;13.468;2024-03-08T09:52:40;101638.50;;;5.35;56.36
84380;BME280;74571;52.514;13.468;2024-03-08T09:55:06;101638.34;;;5.37;56.10
84380;BME280;74571;52.514;13.468;2024-03-08T09:57:36;101641.69;;;5.39;56.45
84380;BME280;74571;52.514;13.468;2024-03-08T10:00:02;101637.09;;;5.41;55.69
84380;BME280;74571;52.514;13.468;2024-03-08T10:02:32;101625.91;;;5.37;56.37
84380;BME280;74571;52.514;13.468;2024-03-08T10:05:00;101626.06;;;5.45;55.96
84380;BME280;74571;52.514;13.468;2024-03-08T10:07:28;101624.69;;;5.51;55.71
84380;BME280;74571;52.514;13.468;2024-03-08T10:09:53;101609.59;;;5.71;55.81
84380;BME280;74571;52.514;13.468;2024-03-08T10:12:19;101620.38;;;5.69;54.93
84380;BME280;74571;52.514;13.468;2024-03-08T10:14:45;101612.00;;;5.74;54.82
84380;BME280;74571;52.514;13.468;2024-03-08T10:17:11;101617.47;;;5.82;54.18
84380;BME280;74571;52.514;13.468;2024-03-08T10:19:37;101624.44;;;5.73;53.53
84380;BME280;74571;52.514;13.468;2024-03-08T10:22:02;101612.81;;;5.84;54.38
84380;BME280;74571;52.514;13.468;2024-03-08T10:24:29;101605.41;;;5.87;53.94
84380;BME280;74571;52.514;13.468;2024-03-08T10:27:02;101605.19;;;5.90;54.43
84380;BME280;74571;52.514;13.468;2024-03-08T10:29:30;101602.06;;;6.14;54.58
84380;BME280;74571;52.514;13.468;2024-03-08T10:31:55;101590.91;;;5.91;52.81
84380;BME280;74571;52.514;13.468;2024-03-08T10:34:22;101591.19;;;6.08;51.90
84380;BME280;74571;52.514;13.468;2024-03-08T10:36:50;101587.97;;;6.14;52.24
84380;BME280;74571;52.514;13.468;2024-03-08T10:39:24;101587.38;;;6.20;51.31
84380;BME280;74571;52.514;13.468;2024-03-08T10:42:11;101583.94;;;6.47;51.40
84380;BME280;74571;52.514;13.468;2024-03-08T10:44:48;101586.31;;;6.59;50.06
84380;BME280;74571;52.514;13.468;2024-03-08T10:47:19;101572.75;;;6.53;50.38
84380;BME280;74571;52.514;13.468;2024-03-08T10:52:16;101569.16;;;6.34;49.57
84380;BME280;74571;52.514;13.468;2024-03-08T10:54:43;101565.94;;;6.41;49.13
84380;BME280;74571;52.514;13.468;2024-03-08T10:57:09;101573.06;;;6.30;50.15
84380;BME280;74571;52.514;13.468;2024-03-08T10:59:37;101551.63;;;6.51;49.68
84380;BME280;74571;52.514;13.468;2024-03-08T11:02:08;101549.56;;;6.45;49.56
84380;BME280;74571;52.514;13.468;2024-03-08T11:04:33;101554.00;;;6.54;49.05
84380;BME280;74571;52.514;13.468;2024-03-08T11:07:02;101552.78;;;6.76;49.61
84380;BME280;74571;52.514;13.468;2024-03-08T11:09:38;101554.06;;;6.72;47.62
84380;BME280;74571;52.514;13.468;2024-03-08T11:14:48;101532.72;;;6.82;47.63
84380;BME280;74571;52.514;13.468;2024-03-08T11:19:55;101528.88;;;6.94;47.94
84380;BME280;74571;52.514;13.468;2024-03-08T11:22:32;101520.06;;;7.11;47.14
84380;BME280;74571;52.514;13.468;2024-03-08T11:25:04;101519.34;;;7.19;47.63
84380;BME280;74571;52.514;13.468;2024-03-08T11:27:35;101514.22;;;7.25;47.52
84380;BME280;74571;52.514;13.468;2024-03-08T11:30:06;101500.72;;;7.36;47.82
84380;BME280;74571;52.514;13.468;2024-03-08T11:32:44;101510.22;;;7.21;47.03
84380;BME280;74571;52.514;13.468;2024-03-08T11:35:22;101512.72;;;7.23;46.25
84380;BME280;74571;52.514;13.468;2024-03-08T11:37:50;101506.25;;;7.25;46.75
84380;BME280;74571;52.514;13.468;2024-03-08T11:40:16;101502.06;;;7.40;46.92
84380;BME280;74571;52.514;13.468;2024-03-08T11:42:45;101493.41;;;7.38;46.82
84380;BME280;74571;52.514;13.468;2024-03-08T11:45:18;101492.47;;;7.48;48.16
84380;BME280;74571;52.514;13.468;2024-03-08T11:47:46;101499.19;;;7.34;47.71
84380;BME280;74571;52.514;13.468;2024-03-08T11:50:15;101492.19;;;7.51;47.75
84380;BME280;74571;52.514;13.468;2024-03-08T11:52:40;101481.38;;;7.52;47.05
84380;BME280;74571;52.514;13.468;2024-03-08T11:55:08;101486.88;;;7.33;47.22
84380;BME280;74571;52.514;13.468;2024-03-08T11:57:33;101487.69;;;7.51;46.96
84380;BME280;74571;52.514;13.468;2024-03-08T11:59:59;101482.84;;;7.72;47.04
84380;BME280;74571;52.514;13.468;2024-03-08T12:02:32;101483.75;;;7.81;47.24
84380;BME280;74571;52.514;13.468;2024-03-08T12:05:00;101481.97;;;7.90;46.35
84380;BME280;74571;52.514;13.468;2024-03-08T12:07:28;101479.56;;;7.79;46.19
84380;BME280;74571;52.514;13.468;2024-03-08T12:10:19;101477.28;;;7.84;45.89
84380;BME280;74571;52.514;13.468;2024-03-08T12:12:47;101476.44;;;7.83;45.95
84380;BME280;74571;52.514;13.468;2024-03-08T12:15:14;101467.25;;;7.78;46.46
84380;BME280;74571;52.514;13.468;2024-03-08T12:17:40;101470.03;;;7.68;46.62
84380;BME280;74571;52.514;13.468;2024-03-08T12:20:15;101463.38;;;7.72;45.91
84380;BME280;74571;52.514;13.468;2024-03-08T12:22:42;101464.22;;;7.98;45.20
84380;BME280;74571;52.514;13.468;2024-03-08T12:25:08;101468.50;;;7.91;45.19
84380;BME280;74571;52.514;13.468;2024-03-08T12:27:36;101459.50;;;7.92;45.12
84380;BME280;74571;52.514;13.468;2024-03-08T12:30:23;101461.47;;;7.82;45.14
84380;BME280;74571;52.514;13.468;2024-03-08T12:32:59;101456.16;;;7.90;44.75
84380;BME280;74571;52.514;13.468;2024-03-08T12:35:28;101434.75;;;7.74;45.34
84380;BME280;74571;52.514;13.468;2024-03-08T12:37:55;101442.91;;;7.72;46.37
84380;BME280;74571;52.514;13.468;2024-03-08T12:40:28;101429.34;;;7.84;45.88
84380;BME280;74571;52.514;13.468;2024-03-08T12:42:58;101435.22;;;7.95;45.26
84380;BME280;74571;52.514;13.468;2024-03-08T12:45:24;101424.78;;;8.02;44.95
84380;BME280;74571;52.514;13.468;2024-03-08T12:47:54;101434.94;;;8.06;44.44
84380;BME280;74571;52.514;13.468;2024-03-08T12:50:25;101421.97;;;8.12;44.25
84380;BME280;74571;52.514;13.468;2024-03-08T12:52:51;101424.34;;;8.23;44.91
84380;BME280;74571;52.514;13.468;2024-03-08T12:55:20;101410.28;;;8.38;44.29
84380;BME280;74571;52.514;13.468;2024-03-08T12:57:46;101403.03;;;8.23;43.78
84380;BME280;74571;52.514;13.468;2024-03-08T13:00:15;101395.91;;;8.31;43.83